createdAt,value
2023-12-12T00:00:21.673Z,8.5
2023-12-12T00:30:22.074Z,7.9
2023-12-12T01:00:23.930Z,7.2
2023-12-12T01:30:09.597Z,7
2023-12-12T02:00:25.525Z,7.2
2023-12-12T02:30:10.222Z,6.8
2023-12-12T03:00:03.036Z,7.1
2023-12-12T03:30:10.695Z,7
2023-12-12T04:00:27.065Z,6.7
2023-12-12T04:30:12.388Z,6.9
2023-12-12T05:00:28.307Z,6.7
2023-12-12T05:30:08.828Z,6.7
2023-12-12T06:00:09.319Z,7.2
2023-12-12T06:30:01.189Z,7.4
2023-12-12T07:00:16.115Z,7.5
2023-12-12T07:30:17.370Z,8
2023-12-12T08:00:09.625Z,7.9
2023-12-12T08:30:24.347Z,8.1
2023-12-12T09:00:16.878Z,8.2
2023-12-12T09:30:17.140Z,8.8
2023-12-12T10:30:12.551Z,9.1
2023-12-12T11:00:06.263Z,9
2023-12-12T11:30:20.799Z,9.3
2023-12-12T12:00:21.941Z,9.2
2023-12-12T12:30:06.555Z,10
2023-12-12T13:00:23.160Z,10.6
2023-12-12T13:30:29.596Z,11.1
2023-12-12T14:00:29.522Z,11.2
2023-12-12T14:30:21.931Z,11.2
2023-12-12T15:00:20.686Z,10.7
2023-12-12T15:30:17.631Z,10.5
2023-12-12T16:00:18.755Z,10.7
2023-12-12T16:30:30.263Z,10.5
2023-12-12T17:00:13.008Z,10.5
2023-12-12T17:30:28.420Z,10.2
2023-12-12T18:00:28.918Z,10.2
2023-12-12T18:30:05.972Z,10.4
2023-12-12T19:00:21.744Z,10.1
2023-12-12T19:30:16.039Z,9.9
2023-12-12T20:00:18.234Z,9.5
2023-12-12T20:30:24.410Z,9.2
2023-12-12T21:00:10.558Z,9.1
2023-12-12T21:30:11.302Z,9.1
2023-12-12T22:00:25.636Z,7.2
2023-12-12T22:30:11.928Z,7.1
2023-12-12T23:00:03.946Z,7
2023-12-12T23:30:18.525Z,7.1
